Time;durP1;ratioP1;P1;durP2;ratioP2;P2;SDS_P1;SDS_P2;PMS_P1;PMS_P2;Temp;Humidity;BMP_temperature;BMP_pressure;BME280_temperature;BME280_humidity;BME280_pressure;Samples;Min_cycle;Max_cycle;Signal;HPM_P1;HPM_P2
2024/02/26 00:01:47;;;;;;;1.60;1.43;;;;;;;6.45;100.00;96291.38;5053465;28;20232;-81
2024/02/26 00:04:14;;;;;;;1.70;1.60;;;;;;;6.40;100.00;96293.56;5053069;28;20228;-79
2024/02/26 00:06:42;;;;;;;2.53;1.63;;;;;;;6.41;100.00;96287.34;5053609;28;20216;-80
2024/02/26 00:09:08;;;;;;;1.67;1.53;;;;;;;6.44;100.00;96279.22;5053255;28;20216;-80
2024/02/26 00:11:36;;;;;;;1.47;1.23;;;;;;;6.44;100.00;96285.31;5053408;28;20224;-80
2024/02/26 00:14:02;;;;;;;1.97;1.77;;;;;;;6.43;100.00;96273.16;5053225;28;20221;-80
2024/02/26 00:16:29;;;;;;;1.50;1.40;;;;;;;6.44;100.00;96274.81;5054192;28;20213;-81
2024/02/26 00:18:57;;;;;;;2.40;1.53;;;;;;;6.47;99.97;96274.53;5053319;28;20219;-80
2024/02/26 00:21:24;;;;;;;3.10;1.67;;;;;;;6.45;99.64;96265.97;5056052;28;20228;-81
2024/02/26 00:23:51;;;;;;;1.40;1.30;;;;;;;6.45;99.78;96265.97;5058570;28;20602;-80
2024/02/26 00:26:18;;;;;;;3.13;1.40;;;;;;;6.41;100.00;96269.81;5058306;28;20216;-82
2024/02/26 00:28:44;;;;;;;1.70;1.60;;;;;;;6.39;100.00;96266.47;5057294;28;20686;-78
2024/02/26 00:31:11;;;;;;;2.17;1.87;;;;;;;6.39;100.00;96265.63;5057469;28;20221;-77
2024/02/26 00:33:38;;;;;;;2.60;1.60;;;;;;;6.36;100.00;96271.97;5055835;28;20219;-77
2024/02/26 00:36:05;;;;;;;1.60;1.33;;;;;;;6.51;100.00;96254.97;5055372;28;20206;-78
2024/02/26 00:38:31;;;;;;;1.60;1.50;;;;;;;6.46;100.00;96254.50;5053937;28;20232;-77
2024/02/26 00:40:59;;;;;;;3.47;2.00;;;;;;;6.36;100.00;96261.47;5054509;28;20208;-78
2024/02/26 00:43:26;;;;;;;1.77;1.50;;;;;;;6.33;100.00;96256.50;5054313;28;20220;-78
2024/02/26 00:45:52;;;;;;;1.40;1.30;;;;;;;6.32;100.00;96260.06;5054460;28;20591;-79
2024/02/26 00:48:19;;;;;;;2.60;1.60;;;;;;;6.32;100.00;96257.44;5053876;28;20212;-78
2024/02/26 00:50:45;;;;;;;3.00;2.00;;;;;;;6.33;100.00;96268.75;5053593;28;20214;-77
2024/02/26 00:53:12;;;;;;;1.87;1.60;;;;;;;6.28;100.00;96263.91;5053960;28;20358;-77
2024/02/26 00:55:38;;;;;;;3.57;1.90;;;;;;;6.35;100.00;96267.69;5053912;28;20301;-78
2024/02/26 00:58:06;;;;;;;2.97;1.70;;;;;;;6.34;100.00;96266.03;5053650;28;20577;-78
2024/02/26 01:00:33;;;;;;;1.87;1.50;;;;;;;6.33;100.00;96261.72;5053891;28;20216;-79
2024/02/26 01:03:00;;;;;;;1.73;1.50;;;;;;;6.36;100.00;96271.97;5053884;28;20243;-77
2024/02/26 01:05:26;;;;;;;1.63;1.50;;;;;;;6.39;100.00;96263.84;5053719;28;20757;-77
2024/02/26 01:07:53;;;;;;;1.67;1.30;;;;;;;6.43;100.00;96272.31;5053453;28;20201;-78
2024/02/26 01:10:19;;;;;;;2.63;1.57;;;;;;;6.51;100.00;96260.22;5053647;28;20216;-77
2024/02/26 01:12:46;;;;;;;2.23;1.50;;;;;;;6.52;99.85;96261.88;5053215;28;20243;-79
2024/02/26 01:15:14;;;;;;;1.40;1.30;;;;;;;6.59;99.10;96263.03;5053915;28;20590;-78
2024/02/26 01:17:40;;;;;;;1.70;1.40;;;;;;;6.61;98.59;96266.38;5053371;28;20228;-77
2024/02/26 01:20:08;;;;;;;1.47;1.20;;;;;;;6.61;98.05;96245.41;5053463;28;20597;-78
2024/02/26 01:22:35;;;;;;;2.73;1.37;;;;;;;6.72;95.61;96228.75;5055402;28;20263;-78
2024/02/26 01:25:01;;;;;;;1.93;1.40;;;;;;;6.77;94.80;96219.50;5055073;28;20208;-78
2024/02/26 01:27:28;;;;;;;1.83;1.53;;;;;;;6.89;92.07;96218.47;5054834;28;20204;-79
2024/02/26 01:29:55;;;;;;;1.80;1.40;;;;;;;6.83;90.38;96213.75;5054636;28;20590;-79
2024/02/26 01:32:23;;;;;;;1.73;1.50;;;;;;;6.96;90.16;96198.59;5053262;28;20229;-77
2024/02/26 01:34:49;;;;;;;1.57;1.37;;;;;;;6.96;85.88;96193.34;5053042;28;20597;-76
2024/02/26 01:37:16;;;;;;;2.50;1.67;;;;;;;6.92;86.83;96197.22;5053087;28;20232;-79
2024/02/26 01:39:42;;;;;;;1.73;1.60;;;;;;;6.94;86.46;96194.44;5053231;28;20231;-78
2024/02/26 01:42:09;;;;;;;2.80;1.60;;;;;;;6.88;86.99;96214.19;5052927;28;20236;-78
2024/02/26 01:44:35;;;;;;;2.20;1.60;;;;;;;6.83;86.81;96224.25;5052826;28;20243;-78
2024/02/26 01:47:02;;;;;;;1.67;1.40;;;;;;;6.85;87.97;96226.75;5052677;28;20213;-77
2024/02/26 01:49:31;;;;;;;1.90;1.23;;;;;;;6.81;88.16;96220.91;5052569;28;20729;-79
2024/02/26 01:51:58;;;;;;;3.23;1.50;;;;;;;6.80;88.86;96221.88;5052836;28;20230;-77
2024/02/26 01:54:25;;;;;;;1.57;1.40;;;;;;;6.81;88.13;96226.16;5052639;28;20204;-77
2024/02/26 01:56:52;;;;;;;2.03;1.40;;;;;;;6.76;89.09;96249.34;5052737;28;20617;-78
2024/02/26 01:59:19;;;;;;;2.53;1.90;;;;;;;6.77;90.17;96266.75;5052327;28;20235;-77
2024/02/26 02:01:49;;;;;;;1.90;1.43;;;;;;;6.74;91.50;96267.03;5051300;28;20229;-78
2024/02/26 02:04:17;;;;;;;2.07;1.50;;;;;;;6.75;91.32;96267.84;5052842;28;20205;-77
2024/02/26 02:06:46;;;;;;;1.50;1.30;;;;;;;6.75;91.34;96260.81;5052547;28;20210;-77
2024/02/26 02:09:13;;;;;;;1.80;1.40;;;;;;;6.76;91.08;96278.22;5052190;28;20211;-78
2024/02/26 02:11:39;;;;;;;2.13;1.60;;;;;;;6.77;91.15;96274.63;5052152;28;20422;-78
2024/02/26 02:14:07;;;;;;;1.70;1.57;;;;;;;6.80;89.76;96271.75;5052351;28;20323;-78
2024/02/26 02:16:33;;;;;;;1.40;1.30;;;;;;;6.83;88.51;96268.88;5052372;28;20623;-77
2024/02/26 02:19:00;;;;;;;2.00;1.40;;;;;;;6.87;87.68;96267.66;5054474;28;20545;-78
2024/02/26 02:21:28;;;;;;;1.63;1.40;;;;;;;6.81;89.71;96277.84;5063612;28;20228;-78
2024/02/26 02:23:55;;;;;;;2.27;1.53;;;;;;;6.79;91.52;96288.44;5065618;28;20220;-78
2024/02/26 02:26:21;;;;;;;3.47;1.53;;;;;;;6.73;93.02;96288.97;5066061;28;20224;-78
2024/02/26 02:28:49;;;;;;;2.27;1.60;;;;;;;6.79;92.45;96290.25;5055358;28;20215;-78
2024/02/26 02:31:16;;;;;;;2.10;1.40;;;;;;;6.83;90.15;96271.50;5052819;28;20220;-78
2024/02/26 02:33:43;;;;;;;1.47;1.37;;;;;;;6.83;89.65;96266.25;5052721;28;20305;-78
2024/02/26 02:36:11;;;;;;;2.10;1.50;;;;;;;6.81;89.24;96257.66;5052640;28;20213;-79
2024/02/26 02:38:39;;;;;;;1.40;1.30;;;;;;;6.83;89.83;96276.75;5052511;28;20275;-79
2024/02/26 02:41:05;;;;;;;2.30;1.60;;;;;;;6.88;90.00;96279.81;5052356;28;20208;-78
2024/02/26 02:43:32;;;;;;;1.53;1.30;;;;;;;6.84;90.79;96278.41;5053437;28;20204;-79
2024/02/26 02:45:59;;;;;;;2.83;1.60;;;;;;;6.80;89.74;96271.75;5052255;28;20236;-79
2024/02/26 02:48:25;;;;;;;2.63;1.60;;;;;;;6.80;90.23;96274.38;5051452;28;20209;-77
2024/02/26 02:50:52;;;;;;;1.80;1.43;;;;;;;6.82;88.45;96259.34;5051633;28;20590;-77
2024/02/26 02:53:18;;;;;;;2.40;1.77;;;;;;;6.88;87.52;96258.81;5051668;28;20228;-79
2024/02/26 02:55:46;;;;;;;1.93;1.43;;;;;;;6.88;87.72;96256.19;5051915;28;20754;-80
2024/02/26 02:58:13;;;;;;;2.90;1.77;;;;;;;6.92;87.32;96257.63;5051570;28;20240;-79
2024/02/26 03:00:39;;;;;;;1.60;1.40;;;;;;;7.09;86.02;96246.47;5051991;28;20211;-79
2024/02/26 03:03:06;;;;;;;4.90;1.90;;;;;;;7.07;90.69;96279.94;5051630;28;20226;-77
2024/02/26 03:05:32;;;;;;;4.23;1.70;;;;;;;6.88;93.03;96290.31;5052415;28;20204;-77
2024/02/26 03:07:59;;;;;;;2.33;1.70;;;;;;;6.77;94.35;96287.75;5051373;28;20704;-77
2024/02/26 03:10:26;;;;;;;2.67;1.77;;;;;;;6.73;94.23;96296.03;5051735;28;20266;-77
2024/02/26 03:12:54;;;;;;;1.60;1.30;;;;;;;6.82;93.27;96309.22;5051346;28;20313;-77
2024/02/26 03:15:21;;;;;;;2.30;1.40;;;;;;;6.83;94.98;96318.75;5051383;28;20316;-77
2024/02/26 03:17:47;;;;;;;2.27;1.60;;;;;;;6.74;96.59;96323.94;5050898;28;20320;-77
2024/02/26 03:20:14;;;;;;;2.83;1.80;;;;;;;6.65;99.62;96325.53;5051321;28;20296;-77
2024/02/26 03:22:41;;;;;;;2.97;1.80;;;;;;;6.64;98.96;96323.84;5051304;28;20233;-77
2024/02/26 03:25:08;;;;;;;1.60;1.50;;;;;;;6.69;97.69;96303.31;5051005;28;20209;-77
2024/02/26 03:27:34;;;;;;;1.87;1.57;;;;;;;6.71;94.63;96282.19;5050988;28;20210;-77
2024/02/26 03:30:03;;;;;;;1.50;1.30;;;;;;;6.73;93.71;96269.78;5051029;28;20216;-79
2024/02/26 03:32:30;;;;;;;1.50;1.13;;;;;;;6.81;89.15;96246.31;5050937;28;20691;-77
2024/02/26 03:34:56;;;;;;;1.40;1.30;;;;;;;6.86;87.26;96247.63;5050894;28;20212;-77
2024/02/26 03:37:22;;;;;;;1.80;1.30;;;;;;;6.82;89.27;96272.47;5050878;28;20228;-77
2024/02/26 03:39:49;;;;;;;1.80;1.37;;;;;;;6.82;92.06;96285.59;5050892;28;20235;-77
2024/02/26 03:42:16;;;;;;;1.93;1.57;;;;;;;6.78;94.67;96288.59;5051023;28;20253;-79
2024/02/26 03:44:42;;;;;;;1.40;1.30;;;;;;;6.76;95.92;96293.97;5050955;28;20216;-77
2024/02/26 03:47:10;;;;;;;2.80;1.80;;;;;;;6.71;96.67;96287.44;5050967;28;20296;-77
2024/02/26 03:49:37;;;;;;;2.13;1.40;;;;;;;6.69;98.43;96289.34;5050774;28;20224;-77
2024/02/26 03:52:04;;;;;;;1.77;1.57;;;;;;;6.65;98.11;96275.66;5051136;28;20249;-77
2024/02/26 03:54:30;;;;;;;2.73;1.80;;;;;;;6.60;98.53;96275.19;5050862;28;20209;-76
2024/02/26 03:56:57;;;;;;;2.43;2.07;;;;;;;6.52;99.57;96267.13;5053286;28;20207;-77
2024/02/26 03:59:24;;;;;;;3.27;1.70;;;;;;;6.37;100.00;96273.66;5054210;28;20294;-79
2024/02/26 04:01:51;;;;;;;2.83;1.83;;;;;;;6.35;100.00;96277.34;5054680;28;20725;-79
2024/02/26 04:04:19;;;;;;;2.10;1.90;;;;;;;6.39;100.00;96266.47;5054811;28;20210;-79
2024/02/26 04:06:45;;;;;;;2.07;1.50;;;;;;;6.32;100.00;96275.81;5054744;28;20208;-79
2024/02/26 04:09:12;;;;;;;2.03;1.80;;;;;;;6.17;100.00;96274.41;5054192;28;20222;-77
2024/02/26 04:11:38;;;;;;;2.10;1.80;;;;;;;6.19;100.00;96296.13;5054529;28;20595;-77
2024/02/26 04:14:05;;;;;;;2.10;1.90;;;;;;;6.02;100.00;96299.28;5054262;28;20229;-77
2024/02/26 04:16:32;;;;;;;2.10;1.87;;;;;;;5.95;100.00;96305.13;5054333;28;20213;-77
2024/02/26 04:18:58;;;;;;;2.50;2.17;;;;;;;5.91;100.00;96299.28;5054202;28;20227;-77
2024/02/26 04:21:26;;;;;;;2.50;1.90;;;;;;;6.01;100.00;96287.13;5054368;28;20612;-78
2024/02/26 04:23:54;;;;;;;2.10;1.90;;;;;;;6.03;100.00;96279.09;5054583;28;20208;-78
2024/02/26 04:26:21;;;;;;;2.17;1.60;;;;;;;6.20;100.00;96276.81;5054204;28;20251;-77
2024/02/26 04:28:48;;;;;;;2.67;1.80;;;;;;;6.03;100.00;96264.22;5053871;28;20212;-76
2024/02/26 04:31:14;;;;;;;2.43;1.80;;;;;;;5.94;100.00;96274.63;5052525;28;20608;-77
2024/02/26 04:33:42;;;;;;;1.90;1.70;;;;;;;5.90;100.00;96263.53;5054257;28;20214;-77
2024/02/26 04:36:14;;;;;;;1.57;1.47;;;;;;;5.89;100.00;96261.03;5054219;28;20219;-77
2024/02/26 04:38:41;;;;;;;1.53;1.43;;;;;;;5.93;100.00;96260.66;5053919;28;20232;-77
2024/02/26 04:41:08;;;;;;;2.90;1.60;;;;;;;6.06;100.00;96263.16;5053975;28;20215;-77
2024/02/26 04:43:34;;;;;;;1.57;1.40;;;;;;;6.20;100.00;96263.69;5053851;28;20212;-77
2024/02/26 04:46:01;;;;;;;3.17;1.90;;;;;;;6.15;100.00;96273.72;5053841;28;20226;-77
2024/02/26 04:48:28;;;;;;;1.70;1.60;;;;;;;6.09;100.00;96268.97;5053746;28;20206;-77
2024/02/26 04:50:55;;;;;;;2.87;1.67;;;;;;;6.07;100.00;96276.13;5053850;28;20212;-77
2024/02/26 04:53:21;;;;;;;1.70;1.60;;;;;;;6.06;100.00;96284.97;5053801;28;20600;-77
2024/02/26 04:55:49;;;;;;;1.80;1.57;;;;;;;6.16;100.00;96270.13;5053955;28;20206;-77
2024/02/26 04:58:16;;;;;;;2.00;1.53;;;;;;;6.35;100.00;96249.31;5053252;28;20208;-77
2024/02/26 05:00:42;;;;;;;1.57;1.27;;;;;;;6.41;100.00;96248.81;5053596;28;20709;-77
2024/02/26 05:03:12;;;;;;;1.87;1.37;;;;;;;6.33;100.00;96261.72;5053711;28;20610;-77
2024/02/26 05:05:39;;;;;;;2.30;1.47;;;;;;;6.28;100.00;96269.16;5053627;28;20208;-78
2024/02/26 05:08:07;;;;;;;2.13;1.60;;;;;;;6.33;100.00;96258.25;5052847;28;20212;-77
2024/02/26 05:10:34;;;;;;;1.60;1.50;;;;;;;6.57;99.95;96241.34;5053191;28;20240;-77
2024/02/26 05:13:02;;;;;;;3.13;1.80;;;;;;;6.58;99.59;96250.88;5053089;28;20237;-77
2024/02/26 05:15:28;;;;;;;1.60;1.50;;;;;;;6.44;100.00;96259.06;5053272;28;20213;-77
2024/02/26 05:17:55;;;;;;;2.17;1.50;;;;;;;6.35;100.00;96269.47;5053165;28;20209;-77
2024/02/26 05:20:21;;;;;;;2.07;1.73;;;;;;;6.41;100.00;96256.69;5053211;28;20236;-77
2024/02/26 05:22:48;;;;;;;2.10;1.60;;;;;;;6.51;97.94;96244.47;5053076;28;20232;-77
2024/02/26 05:25:15;;;;;;;2.77;1.50;;;;;;;6.43;98.21;96246.06;5052899;28;20235;-77
2024/02/26 05:27:43;;;;;;;2.50;1.60;;;;;;;6.42;99.05;96254.91;5052976;28;20212;-77
2024/02/26 05:30:12;;;;;;;2.03;1.40;;;;;;;6.42;100.00;96271.47;5053416;28;20209;-78
2024/02/26 05:32:38;;;;;;;2.10;1.40;;;;;;;6.41;100.00;96269.81;5052684;28;20722;-77
2024/02/26 05:35:06;;;;;;;1.77;1.57;;;;;;;6.46;99.67;96278.13;5052823;28;20298;-77
2024/02/26 05:37:32;;;;;;;2.10;1.80;;;;;;;6.47;99.20;96274.53;5052885;28;20223;-77
2024/02/26 05:40:00;;;;;;;2.47;1.50;;;;;;;6.52;99.04;96276.78;5052326;28;20227;-77
2024/02/26 05:42:26;;;;;;;2.07;1.87;;;;;;;6.56;98.60;96271.19;5052749;28;20230;-77
2024/02/26 05:44:53;;;;;;;2.03;1.60;;;;;;;6.59;98.05;96278.78;5052720;28;20655;-77
2024/02/26 05:47:21;;;;;;;2.00;1.50;;;;;;;6.61;97.30;96297.03;5052784;28;20322;-77
2024/02/26 05:49:48;;;;;;;2.77;1.70;;;;;;;6.60;97.84;96301.44;5052572;28;20200;-77
2024/02/26 05:52:15;;;;;;;2.53;1.50;;;;;;;6.60;97.67;96314.56;5052269;28;20231;-77
2024/02/26 05:54:41;;;;;;;1.87;1.60;;;;;;;6.59;97.89;96315.53;5052705;28;20208;-77
2024/02/26 05:57:08;;;;;;;2.57;1.77;;;;;;;6.58;97.10;96319.09;5052533;28;20217;-77
2024/02/26 05:59:34;;;;;;;4.50;1.73;;;;;;;6.52;98.70;96324.84;5051907;28;20235;-77
2024/02/26 06:02:01;;;;;;;2.73;1.90;;;;;;;6.42;100.00;96334.44;5052283;28;20247;-77
2024/02/26 06:04:29;;;;;;;1.63;1.53;;;;;;;6.34;100.00;96336.84;5052520;28;20207;-77
2024/02/26 06:06:56;;;;;;;1.50;1.40;;;;;;;6.25;100.00;96342.84;5052231;28;20220;-78
2024/02/26 06:09:23;;;;;;;3.13;1.80;;;;;;;6.19;100.00;96345.13;5051061;28;20221;-77
2024/02/26 06:11:50;;;;;;;1.93;1.63;;;;;;;6.15;100.00;96362.88;5052186;28;20230;-77
2024/02/26 06:14:18;;;;;;;1.70;1.60;;;;;;;6.25;100.00;96349.88;5051978;28;20223;-77
2024/02/26 06:16:44;;;;;;;1.73;1.60;;;;;;;6.27;100.00;96335.69;5052290;28;20205;-77
2024/02/26 06:19:11;;;;;;;4.27;1.87;;;;;;;6.20;100.00;96347.63;5051508;28;20226;-77
2024/02/26 06:21:39;;;;;;;1.87;1.67;;;;;;;6.13;100.00;96358.72;5051773;28;20238;-77
2024/02/26 06:24:05;;;;;;;2.13;1.67;;;;;;;6.10;100.00;96365.03;5052539;28;20213;-76
2024/02/26 06:26:33;;;;;;;3.87;1.90;;;;;;;6.08;100.00;96361.72;5051965;28;20209;-79
2024/02/26 06:28:59;;;;;;;2.77;1.97;;;;;;;6.05;100.00;96367.19;5052106;28;20577;-77
2024/02/26 06:31:27;;;;;;;3.30;2.00;;;;;;;6.01;100.00;96360.53;5052127;28;20228;-78
2024/02/26 06:33:53;;;;;;;3.17;2.07;;;;;;;5.94;100.00;96361.97;5053279;28;20237;-78
2024/02/26 06:36:20;;;;;;;2.70;1.87;;;;;;;5.88;100.00;96365.09;5053236;28;20212;-78
2024/02/26 06:38:49;;;;;;;3.10;1.90;;;;;;;5.91;100.00;96356.97;5053141;28;20216;-78
2024/02/26 06:41:15;;;;;;;2.47;1.90;;;;;;;5.97;100.00;96364.34;5053328;28;20589;-78
2024/02/26 06:43:41;;;;;;;1.80;1.50;;;;;;;5.98;100.00;96370.44;5053546;28;20208;-78
2024/02/26 06:46:08;;;;;;;2.07;1.80;;;;;;;6.10;100.00;96374.72;5051814;28;20215;-77
2024/02/26 06:48:36;;;;;;;2.67;2.10;;;;;;;6.08;100.00;96372.19;5051357;28;20214;-78
2024/02/26 06:51:03;;;;;;;2.00;1.80;;;;;;;6.10;100.00;96369.47;5051358;28;20587;-77
2024/02/26 06:53:29;;;;;;;2.40;1.77;;;;;;;6.09;100.00;96373.88;5051787;28;20209;-78
2024/02/26 06:55:57;;;;;;;3.33;2.30;;;;;;;6.10;100.00;96385.19;5051467;28;20208;-77
2024/02/26 06:58:24;;;;;;;2.37;2.00;;;;;;;6.11;100.00;96374.56;5051289;28;20205;-78
2024/02/26 07:00:50;;;;;;;2.47;2.27;;;;;;;6.16;100.00;96390.78;5051338;28;20235;-78
2024/02/26 07:03:17;;;;;;;2.97;2.00;;;;;;;6.20;100.00;96394.84;5052764;28;20280;-77
2024/02/26 07:05:45;;;;;;;2.17;1.80;;;;;;;6.21;100.00;96393.88;5052955;28;20213;-77
2024/02/26 07:08:11;;;;;;;2.07;1.87;;;;;;;6.23;100.00;96402.44;5051759;28;20210;-77
2024/02/26 07:10:37;;;;;;;2.10;1.90;;;;;;;6.32;100.00;96401.72;5051385;28;20211;-77
2024/02/26 07:13:05;;;;;;;2.13;1.90;;;;;;;6.34;100.00;96415.56;5051320;28;20236;-77
2024/02/26 07:15:33;;;;;;;2.40;1.90;;;;;;;6.35;100.00;96419.84;5051247;28;20672;-78
2024/02/26 07:18:02;;;;;;;1.70;1.60;;;;;;;6.41;100.00;96431.66;5051118;28;20294;-78
2024/02/26 07:20:29;;;;;;;1.87;1.70;;;;;;;6.44;100.00;96429.63;5051340;28;20287;-77
2024/02/26 07:22:56;;;;;;;2.17;1.83;;;;;;;6.43;100.00;96429.72;5051194;28;20250;-77
2024/02/26 07:25:23;;;;;;;2.63;2.13;;;;;;;6.39;100.00;96433.53;5050894;28;20208;-78
2024/02/26 07:27:49;;;;;;;3.30;1.87;;;;;;;6.46;100.00;96434.72;5050992;28;20212;-78
2024/02/26 07:30:17;;;;;;;3.10;2.20;;;;;;;6.46;100.00;96435.56;5054483;28;20205;-78
2024/02/26 07:32:44;;;;;;;2.80;1.93;;;;;;;6.48;100.00;96441.50;5056723;28;20238;-78
2024/02/26 07:35:11;;;;;;;2.13;1.80;;;;;;;6.51;100.00;96436.03;5057009;28;20212;-78
2024/02/26 07:37:37;;;;;;;2.03;1.83;;;;;;;6.52;100.00;96440.31;5057073;28;20217;-78
2024/02/26 07:40:05;;;;;;;3.00;2.07;;;;;;;6.56;100.00;96446.16;5057429;28;20233;-78
2024/02/26 07:42:32;;;;;;;2.93;2.10;;;;;;;6.57;100.00;96432.91;5057488;28;20228;-78
2024/02/26 07:44:58;;;;;;;3.30;2.13;;;;;;;6.59;100.00;96444.13;5057519;28;20209;-78
2024/02/26 07:47:26;;;;;;;2.83;2.07;;;;;;;6.70;100.00;96433.59;5057289;28;20216;-78
2024/02/26 07:49:53;;;;;;;3.10;2.40;;;;;;;6.77;100.00;96440.03;5056518;28;20216;-78
2024/02/26 07:52:19;;;;;;;2.63;1.93;;;;;;;6.76;100.00;96448.00;5056377;28;20830;-78
2024/02/26 07:54:46;;;;;;;3.10;2.57;;;;;;;6.76;100.00;96451.47;5056950;28;20215;-78
2024/02/26 07:57:15;;;;;;;3.97;2.20;;;;;;;6.81;100.00;96457.19;5056888;28;20216;-78
2024/02/26 07:59:41;;;;;;;3.40;2.53;;;;;;;6.85;100.00;96458.59;5056263;28;20234;-78
2024/02/26 08:02:08;;;;;;;2.90;2.10;;;;;;;6.89;100.00;96446.91;5057048;28;20225;-78
2024/02/26 08:04:36;;;;;;;3.73;2.53;;;;;;;6.97;100.00;96454.16;5056821;28;20700;-78
2024/02/26 08:07:02;;;;;;;5.37;2.83;;;;;;;7.15;100.00;96450.84;5057217;28;20204;-78
2024/02/26 08:09:29;;;;;;;5.83;3.50;;;;;;;7.32;100.00;96445.91;5056345;28;20201;-78
2024/02/26 08:11:55;;;;;;;3.53;3.13;;;;;;;7.27;100.00;96434.09;5056341;28;20753;-78
2024/02/26 08:14:22;;;;;;;5.47;3.80;;;;;;;7.29;100.00;96440.06;5056847;28;20224;-80
2024/02/26 08:16:48;;;;;;;4.03;3.30;;;;;;;7.23;100.00;96448.47;5056291;28;20209;-78
2024/02/26 08:19:15;;;;;;;3.20;2.77;;;;;;;7.24;100.00;96442.22;5057004;28;20517;-78
2024/02/26 08:21:43;;;;;;;4.53;3.50;;;;;;;7.30;100.00;96452.25;5056839;28;20255;-78
2024/02/26 08:24:10;;;;;;;4.93;3.03;;;;;;;7.33;100.00;96442.31;5055433;28;20675;-78
2024/02/26 08:26:36;;;;;;;4.90;3.40;;;;;;;7.30;100.00;96444.34;5055699;28;20675;-78
2024/02/26 08:29:03;;;;;;;5.77;3.33;;;;;;;7.34;100.00;96445.78;5055420;28;20214;-78
2024/02/26 08:31:30;;;;;;;5.37;3.10;;;;;;;7.33;100.00;96439.69;5055154;28;20408;-78
2024/02/26 08:33:58;;;;;;;4.97;3.70;;;;;;;7.31;100.00;96446.00;5054644;28;20218;-77
2024/02/26 08:36:24;;;;;;;5.33;3.53;;;;;;;7.30;100.00;96447.78;5054764;28;20275;-78
2024/02/26 08:38:52;;;;;;;4.80;3.30;;;;;;;7.38;100.00;96441.09;5054178;28;20210;-78
2024/02/26 08:41:18;;;;;;;3.47;2.87;;;;;;;7.41;100.00;96437.22;5054344;28;20273;-78
2024/02/26 08:43:45;;;;;;;6.20;3.13;;;;;;;7.42;100.00;96431.00;5055004;28;20213;-78
2024/02/26 08:46:13;;;;;;;6.07;3.23;;;;;;;7.29;100.00;96443.50;5055197;28;20225;-78
2024/02/26 08:48:40;;;;;;;6.23;2.83;;;;;;;7.35;100.00;96453.50;5054877;28;20222;-78
2024/02/26 08:51:07;;;;;;;4.10;2.80;;;;;;;7.37;100.00;96456.03;5055241;28;20699;-78
2024/02/26 08:53:34;;;;;;;4.17;3.07;;;;;;;7.44;100.00;96457.19;5056306;28;20723;-79
2024/02/26 08:56:02;;;;;;;4.53;3.20;;;;;;;7.49;100.00;96452.38;5056904;28;20213;-79
2024/02/26 08:58:28;;;;;;;4.67;2.43;;;;;;;7.72;100.00;96448.66;5057137;28;20212;-79
2024/02/26 09:00:55;;;;;;;2.83;2.50;;;;;;;7.85;100.00;96451.91;5057910;28;20225;-79
2024/02/26 09:03:21;;;;;;;4.27;2.50;;;;;;;7.89;100.00;96455.97;5058813;28;20227;-79
2024/02/26 09:05:48;;;;;;;3.87;2.63;;;;;;;7.88;100.00;96454.25;5058055;28;20219;-79
2024/02/26 09:08:15;;;;;;;3.07;2.30;;;;;;;7.89;100.00;96456.78;5058343;28;20225;-79
2024/02/26 09:10:41;;;;;;;4.53;2.83;;;;;;;7.92;100.00;96455.69;5058848;28;20215;-78
2024/02/26 09:13:09;;;;;;;3.63;2.57;;;;;;;7.96;100.00;96459.72;5058572;28;20618;-79
2024/02/26 09:15:35;;;;;;;3.53;2.67;;;;;;;8.02;100.00;96451.31;5057578;28;20217;-79
2024/02/26 09:18:02;;;;;;;3.07;2.40;;;;;;;8.12;100.00;96460.06;5056460;28;20235;-79
2024/02/26 09:20:29;;;;;;;3.83;2.80;;;;;;;8.30;100.00;96458.53;5056252;28;20690;-78
2024/02/26 09:22:56;;;;;;;2.90;2.13;;;;;;;8.43;100.00;96445.94;5059377;28;20230;-80
2024/02/26 09:25:22;;;;;;;3.97;2.20;;;;;;;8.50;100.00;96439.22;5060096;28;20224;-79
2024/02/26 09:27:49;;;;;;;2.90;2.40;;;;;;;8.61;100.00;96429.41;5059555;28;20210;-79
2024/02/26 09:30:16;;;;;;;3.07;2.10;;;;;;;8.62;100.00;96412.63;5060908;28;20681;-80
2024/02/26 09:32:47;;;;;;;3.10;2.28;;;;;;;8.51;100.00;96415.34;5059445;28;20454;-78
2024/02/26 09:35:14;;;;;;;3.37;2.33;;;;;;;8.47;100.00;96418.41;5061108;28;20223;-78
2024/02/26 09:37:42;;;;;;;2.80;2.33;;;;;;;8.39;100.00;96428.78;5061242;28;20229;-78
2024/02/26 09:40:11;;;;;;;2.80;2.40;;;;;;;8.38;100.00;96441.09;5060746;28;20233;-80
2024/02/26 09:42:43;;;;;;;3.23;2.17;;;;;;;8.33;100.00;96437.22;5061740;28;20642;-79
2024/02/26 09:45:13;;;;;;;3.17;2.47;;;;;;;8.30;100.00;96440.09;5059807;28;20205;-79
2024/02/26 09:47:42;;;;;;;2.63;2.27;;;;;;;8.27;100.00;96446.47;5060111;28;20214;-79
2024/02/26 09:50:12;;;;;;;2.87;2.47;;;;;;;8.24;100.00;96459.03;5058922;28;20214;-80
2024/02/26 09:52:39;;;;;;;4.07;2.63;;;;;;;8.27;100.00;96461.44;5057149;28;20226;-79
2024/02/26 09:55:06;;;;;;;2.83;2.50;;;;;;;8.24;100.00;96464.31;5056415;28;20208;-81
2024/02/26 09:57:33;;;;;;;4.27;2.73;;;;;;;8.40;100.00;96469.94;5063316;28;20686;-80
2024/02/26 10:00:03;;;;;;;3.00;2.70;;;;;;;8.56;100.00;96472.91;5062658;28;20616;-80
2024/02/26 10:02:31;;;;;;;3.13;2.20;;;;;;;8.75;100.00;96459.78;5065166;28;20294;-80
2024/02/26 10:05:01;;;;;;;4.00;2.93;;;;;;;8.91;100.00;96470.63;5064765;28;20218;-80
2024/02/26 10:07:30;;;;;;;2.87;2.47;;;;;;;9.08;100.00;96462.91;5058704;28;20210;-77
2024/02/26 10:09:56;;;;;;;3.10;2.50;;;;;;;9.18;100.00;96468.16;5057944;28;20230;-79
2024/02/26 10:12:25;;;;;;;3.87;2.70;;;;;;;9.19;100.00;96470.63;5059819;28;20537;-79
2024/02/26 10:14:52;;;;;;;4.00;2.47;;;;;;;9.21;100.00;96466.09;5060259;28;20202;-79
2024/02/26 10:17:20;;;;;;;2.70;2.20;;;;;;;9.25;100.00;96474.53;5059699;28;20229;-78
2024/02/26 10:19:46;;;;;;;3.07;2.43;;;;;;;9.32;100.00;96478.28;5061632;28;20279;-78
2024/02/26 10:22:14;;;;;;;3.20;2.60;;;;;;;9.42;100.00;96476.50;5056667;28;20698;-79
2024/02/26 10:24:40;;;;;;;3.57;2.70;;;;;;;9.58;100.00;96471.47;5053694;28;20207;-79
2024/02/26 10:27:09;;;;;;;3.50;2.50;;;;;;;9.82;100.00;96462.16;5053602;28;20229;-77
2024/02/26 10:29:36;;;;;;;4.67;2.27;;;;;;;10.07;100.00;96466.84;5051878;28;20225;-78
2024/02/26 10:32:02;;;;;;;3.97;2.40;;;;;;;10.29;100.00;96468.31;5055186;28;20231;-78
2024/02/26 10:34:29;;;;;;;3.00;2.47;;;;;;;10.42;100.00;96448.53;5053864;28;20229;-79
2024/02/26 10:36:55;;;;;;;3.73;2.40;;;;;;;10.55;100.00;96449.03;5054735;28;20217;-79
2024/02/26 10:39:23;;;;;;;2.83;2.40;;;;;;;10.69;97.35;96440.59;5051443;28;20226;-77
2024/02/26 10:41:51;;;;;;;5.37;2.43;;;;;;;10.78;92.89;96418.59;5051550;28;20234;-77
2024/02/26 10:44:17;;;;;;;3.53;2.37;;;;;;;10.83;92.57;96416.31;5052045;28;20207;-77
2024/02/26 10:46:44;;;;;;;2.67;2.47;;;;;;;10.97;94.01;96428.19;5053242;28;20442;-77
2024/02/26 10:49:15;;;;;;;1.90;1.80;;;;;;;11.12;93.88;96416.13;5060357;28;20214;-78
2024/02/26 10:51:46;;;;;;;2.77;2.13;;;;;;;11.23;91.77;96418.53;5071234;28;20585;-78
2024/02/26 10:54:16;;;;;;;2.73;2.00;;;;;;;11.28;88.50;96411.81;5070874;28;20585;-78
2024/02/26 10:56:44;;;;;;;2.03;1.83;;;;;;;11.32;85.25;96385.91;5076038;28;20673;-78
2024/02/26 10:59:10;;;;;;;2.20;2.00;;;;;;;11.37;83.33;96400.31;5076518;28;20265;-78
2024/02/26 11:01:38;;;;;;;2.37;2.00;;;;;;;11.41;83.34;96403.47;5079683;28;20231;-80
2024/02/26 11:04:05;;;;;;;3.17;2.20;;;;;;;11.53;80.49;96394.31;5080965;28;20434;-79
2024/02/26 11:06:34;;;;;;;2.30;2.10;;;;;;;11.65;82.25;96411.66;5079521;28;20553;-80
2024/02/26 11:09:02;;;;;;;2.83;2.00;;;;;;;11.73;79.99;96401.13;5079335;28;20207;-83
2024/02/26 11:11:29;;;;;;;1.97;1.70;;;;;;;11.84;77.50;96382.31;5077078;28;20294;-79
2024/02/26 11:13:58;;;;;;;1.83;1.57;;;;;;;11.79;74.33;96368.75;5077975;28;20219;-79
2024/02/26 11:16:27;;;;;;;1.60;1.40;;;;;;;11.75;74.54;96378.00;5079817;28;20241;-80
2024/02/26 11:18:55;;;;;;;1.73;1.47;;;;;;;11.84;74.31;96387.63;5079739;28;20293;-80
2024/02/26 11:21:27;;;;;;;1.60;1.50;;;;;;;11.85;73.62;96384.00;5080254;28;20262;-80
2024/02/26 11:23:54;;;;;;;1.83;1.40;;;;;;;11.84;72.15;96366.44;5079169;28;20622;-84
2024/02/26 11:26:22;;;;;;;1.33;1.20;;;;;;;11.76;73.69;96371.69;5080424;28;20567;-80
2024/02/26 11:28:50;;;;;;;1.80;1.23;;;;;;;11.57;73.42;96369.22;5078584;28;20218;-81
2024/02/26 11:31:26;;;;;;;1.53;1.43;;;;;;;11.44;73.50;96376.75;5081915;28;20669;-80
2024/02/26 11:33:52;;;;;;;1.87;1.50;;;;;;;11.35;71.76;96375.00;5082405;28;20716;-81
2024/02/26 11:36:20;;;;;;;1.60;1.40;;;;;;;11.33;73.68;96387.56;5083109;28;20203;-80